sensor_id;sensor_type;location;lat;lon;timestamp;pressure;altitude;pressure_sealevel;temperature;humidity
27805;BME280;15183;51.350;11.102;2023-02-28T00:00:37;101452.16;;;6.23;56.21
27805;BME280;15183;51.350;11.102;2023-02-28T00:03:04;101427.91;;;6.12;56.60
27805;BME280;15183;51.350;11.102;2023-02-28T00:05:30;101417.88;;;6.07;56.62
27805;BME280;15183;51.350;11.102;2023-02-28T00:07:57;101428.75;;;6.12;56.54
27805;BME280;15183;51.350;11.102;2023-02-28T00:10:27;101374.22;;;5.70;56.62
27805;BME280;15183;51.350;11.102;2023-02-28T00:12:58;101421.78;;;6.03;56.07
27805;BME280;15183;51.350;11.102;2023-02-28T00:15:25;101428.94;;;5.92;56.13
27805;BME280;15183;51.350;11.102;2023-02-28T00:17:52;101431.56;;;5.92;56.57
27805;BME280;15183;51.350;11.102;2023-02-28T00:20:19;101455.66;;;6.06;56.18
27805;BME280;15183;51.350;11.102;2023-02-28T00:22:49;101435.22;;;6.00;56.50
27805;BME280;15183;51.350;11.102;2023-02-28T00:25:20;101425.31;;;5.93;56.12
27805;BME280;15183;51.350;11.102;2023-02-28T00:27:47;101437.25;;;6.06;56.60
27805;BME280;15183;51.350;11.102;2023-02-28T00:30:21;101435.22;;;6.00;56.32
27805;BME280;15183;51.350;11.102;2023-02-28T00:32:48;101420.41;;;5.99;56.57
27805;BME280;15183;51.350;11.102;2023-02-28T00:35:15;101441.44;;;6.17;56.90
27805;BME280;15183;51.350;11.102;2023-02-28T00:37:42;101374.06;;;5.71;56.69
27805;BME280;15183;51.350;11.102;2023-02-28T00:40:09;101419.44;;;6.00;56.58
27805;BME280;15183;51.350;11.102;2023-02-28T00:42:37;101396.88;;;5.89;56.57
27805;BME280;15183;51.350;11.102;2023-02-28T00:45:05;101414.72;;;6.03;56.68
27805;BME280;15183;51.350;11.102;2023-02-28T00:47:32;101434.34;;;6.09;56.70
27805;BME280;15183;51.350;11.102;2023-02-28T00:49:59;101456.78;;;6.21;56.38
27805;BME280;15183;51.350;11.102;2023-02-28T00:52:26;101434.63;;;6.06;56.38
27805;BME280;15183;51.350;11.102;2023-02-28T00:54:52;101457.56;;;6.22;56.49
27805;BME280;15183;51.350;11.102;2023-02-28T00:57:19;101453.13;;;6.14;56.95
27805;BME280;15183;51.350;11.102;2023-02-28T00:59:45;101388.28;;;5.87;56.68
27805;BME280;15183;51.350;11.102;2023-02-28T01:02:11;101449.00;;;6.20;56.78
27805;BME280;15183;51.350;11.102;2023-02-28T01:04:38;101438.94;;;6.07;56.62
27805;BME280;15183;51.350;11.102;2023-02-28T01:07:04;101429.47;;;5.96;56.58
27805;BME280;15183;51.350;11.102;2023-02-28T01:09:31;101455.38;;;6.09;56.23
27805;BME280;15183;51.350;11.102;2023-02-28T01:11:57;101374.69;;;5.65;56.92
27805;BME280;15183;51.350;11.102;2023-02-28T01:14:24;101395.09;;;5.71;57.01
27805;BME280;15183;51.350;11.102;2023-02-28T01:16:50;101455.66;;;6.06;56.60
27805;BME280;15183;51.350;11.102;2023-02-28T01:19:17;101401.34;;;5.70;56.72
27805;BME280;15183;51.350;11.102;2023-02-28T01:21:44;101399.41;;;5.54;56.83
27805;BME280;15183;51.350;11.102;2023-02-28T01:24:10;101417.88;;;5.62;57.05
27805;BME280;15183;51.350;11.102;2023-02-28T01:26:36;101451.88;;;5.82;56.91
27805;BME280;15183;51.350;11.102;2023-02-28T01:29:03;101439.34;;;5.76;56.75
27805;BME280;15183;51.350;11.102;2023-02-28T01:31:29;101422.00;;;5.65;56.97
27805;BME280;15183;51.350;11.102;2023-02-28T01:33:56;101449.03;;;5.75;57.25
27805;BME280;15183;51.350;11.102;2023-02-28T01:36:24;101413.84;;;5.50;57.01
27805;BME280;15183;51.350;11.102;2023-02-28T01:38:51;101407.56;;;5.43;57.20
27805;BME280;15183;51.350;11.102;2023-02-28T01:41:25;101416.78;;;5.29;57.35
27805;BME280;15183;51.350;11.102;2023-02-28T01:46:25;101413.44;;;5.18;57.96
27805;BME280;15183;51.350;11.102;2023-02-28T01:49:01;101409.88;;;5.10;57.91
27805;BME280;15183;51.350;11.102;2023-02-28T01:51:40;101419.41;;;5.11;58.04
27805;BME280;15183;51.350;11.102;2023-02-28T01:54:18;101433.78;;;5.16;58.07
27805;BME280;15183;51.350;11.102;2023-02-28T01:57:11;101416.13;;;5.09;58.29
27805;BME280;15183;51.350;11.102;2023-02-28T01:59:58;101388.31;;;4.88;58.32
27805;BME280;15183;51.350;11.102;2023-02-28T02:02:26;101430.00;;;5.19;57.94
27805;BME280;15183;51.350;11.102;2023-02-28T02:05:06;101422.13;;;5.19;57.91
27805;BME280;15183;51.350;11.102;2023-02-28T02:07:37;101427.44;;;5.27;57.88
27805;BME280;15183;51.350;11.102;2023-02-28T02:10:15;101389.63;;;5.02;57.68
27805;BME280;15183;51.350;11.102;2023-02-28T02:16:34;101412.66;;;5.08;58.03
27805;BME280;15183;51.350;11.102;2023-02-28T02:19:44;101413.44;;;5.18;58.07
27805;BME280;15183;51.350;11.102;2023-02-28T02:25:45;101401.78;;;5.21;58.17
27805;BME280;15183;51.350;11.102;2023-02-28T02:28:49;101399.44;;;5.18;58.17
27805;BME280;15183;51.350;11.102;2023-02-28T02:34:29;101408.38;;;5.25;58.52
27805;BME280;15183;51.350;11.102;2023-02-28T02:40:03;101381.81;;;5.10;58.01
27805;BME280;15183;51.350;11.102;2023-02-28T02:42:44;101390.44;;;5.20;58.22
27805;BME280;15183;51.350;11.102;2023-02-28T02:48:03;101395.09;;;5.27;58.48
27805;BME280;15183;51.350;11.102;2023-02-28T02:50:45;101364.03;;;5.04;58.08
27805;BME280;15183;51.350;11.102;2023-02-28T02:53:15;101413.84;;;5.32;58.26
27805;BME280;15183;51.350;11.102;2023-02-28T02:55:48;101369.66;;;4.91;57.95
27805;BME280;15183;51.350;11.102;2023-02-28T02:58:24;101401.03;;;5.11;58.39
27805;BME280;15183;51.350;11.102;2023-02-28T03:00:55;101345.63;;;4.86;57.94
27805;BME280;15183;51.350;11.102;2023-02-28T03:03:23;101337.31;;;4.90;58.30
27805;BME280;15183;51.350;11.102;2023-02-28T03:05:57;101401.94;;;5.38;58.06
27805;BME280;15183;51.350;11.102;2023-02-28T03:08:26;101404.25;;;5.41;58.22
27805;BME280;15183;51.350;11.102;2023-02-28T03:10:59;101414.28;;;5.45;57.87
27805;BME280;15183;51.350;11.102;2023-02-28T03:20:05;101397.28;;;5.31;57.79
27805;BME280;15183;51.350;11.102;2023-02-28T03:22:58;101418.56;;;5.46;58.02
27805;BME280;15183;51.350;11.102;2023-02-28T03:25:57;101416.34;;;5.52;58.34
27805;BME280;15183;51.350;11.102;2023-02-28T03:31:19;101415.06;;;5.19;58.35
27805;BME280;15183;51.350;11.102;2023-02-28T03:34:07;101416.13;;;5.27;58.40
27805;BME280;15183;51.350;11.102;2023-02-28T03:36:47;101394.13;;;5.10;58.11
27805;BME280;15183;51.350;11.102;2023-02-28T03:39:24;101411.91;;;5.16;58.28
27805;BME280;15183;51.350;11.102;2023-02-28T03:41:59;101417.84;;;5.18;57.93
27805;BME280;15183;51.350;11.102;2023-02-28T03:44:41;101414.31;;;5.09;57.70
27805;BME280;15183;51.350;11.102;2023-02-28T03:47:31;101396.16;;;4.98;58.04
27805;BME280;15183;51.350;11.102;2023-02-28T03:50:17;101395.22;;;4.89;58.06
27805;BME280;15183;51.350;11.102;2023-02-28T03:52:51;101366.78;;;4.66;58.20
27805;BME280;15183;51.350;11.102;2023-02-28T03:55:20;101412.75;;;4.98;57.60
27805;BME280;15183;51.350;11.102;2023-02-28T03:58:32;101412.94;;;5.05;58.47
27805;BME280;15183;51.350;11.102;2023-02-28T04:01:09;101384.97;;;4.96;58.45
27805;BME280;15183;51.350;11.102;2023-02-28T04:03:38;101402.31;;;5.06;58.28
27805;BME280;15183;51.350;11.102;2023-02-28T04:06:08;101405.63;;;5.09;58.21
27805;BME280;15183;51.350;11.102;2023-02-28T04:08:39;101415.75;;;5.21;58.65
27805;BME280;15183;51.350;11.102;2023-02-28T04:11:32;101405.44;;;5.10;58.40
27805;BME280;15183;51.350;11.102;2023-02-28T04:13:59;101385.25;;;4.92;58.42
27805;BME280;15183;51.350;11.102;2023-02-28T04:16:25;101414.78;;;5.04;58.83
27805;BME280;15183;51.350;11.102;2023-02-28T04:18:51;101383.38;;;4.85;58.99
27805;BME280;15183;51.350;11.102;2023-02-28T04:21:18;101409.16;;;4.99;58.47
27805;BME280;15183;51.350;11.102;2023-02-28T04:23:48;101402.25;;;4.98;58.85
27805;BME280;15183;51.350;11.102;2023-02-28T04:26:14;101386.19;;;5.01;58.89
27805;BME280;15183;51.350;11.102;2023-02-28T04:28:40;101382.28;;;5.05;58.44
27805;BME280;15183;51.350;11.102;2023-02-28T04:31:07;101424.69;;;5.29;58.35
27805;BME280;15183;51.350;11.102;2023-02-28T04:33:33;101415.44;;;5.25;58.21
27805;BME280;15183;51.350;11.102;2023-02-28T04:36:05;101358.63;;;4.87;58.35
27805;BME280;15183;51.350;11.102;2023-02-28T04:38:37;101337.31;;;4.72;58.32
27805;BME280;15183;51.350;11.102;2023-02-28T04:41:04;101419.88;;;5.24;57.97
27805;BME280;15183;51.350;11.102;2023-02-28T04:43:31;101393.16;;;5.11;57.51
27805;BME280;15183;51.350;11.102;2023-02-28T04:46:02;101413.88;;;5.14;57.67
27805;BME280;15183;51.350;11.102;2023-02-28T04:48:33;101411.00;;;5.07;57.49
27805;BME280;15183;51.350;11.102;2023-02-28T04:51:05;101410.13;;;4.98;57.25
27805;BME280;15183;51.350;11.102;2023-02-28T04:53:32;101410.19;;;4.88;57.34
27805;BME280;15183;51.350;11.102;2023-02-28T04:55:58;101415.81;;;4.93;57.21
27805;BME280;15183;51.350;11.102;2023-02-28T04:58:25;101422.47;;;4.88;56.92
27805;BME280;15183;51.350;11.102;2023-02-28T05:00:52;101404.28;;;4.58;56.38
27805;BME280;15183;51.350;11.102;2023-02-28T05:03:20;101412.78;;;4.70;56.17
27805;BME280;15183;51.350;11.102;2023-02-28T05:05:49;101420.66;;;4.70;55.72
27805;BME280;15183;51.350;11.102;2023-02-28T05:08:16;101435.19;;;4.64;56.08
27805;BME280;15183;51.350;11.102;2023-02-28T05:10:42;101397.81;;;4.25;56.04
27805;BME280;15183;51.350;11.102;2023-02-28T05:13:12;101429.38;;;4.33;55.62
27805;BME280;15183;51.350;11.102;2023-02-28T05:15:38;101438.06;;;4.33;55.27
27805;BME280;15183;51.350;11.102;2023-02-28T05:18:05;101437.56;;;4.20;55.80
27805;BME280;15183;51.350;11.102;2023-02-28T05:20:31;101413.63;;;3.95;55.89
27805;BME280;15183;51.350;11.102;2023-02-28T05:22:59;101414.06;;;3.90;55.93
27805;BME280;15183;51.350;11.102;2023-02-28T05:25:26;101426.47;;;3.98;56.15
27805;BME280;15183;51.350;11.102;2023-02-28T05:27:52;101434.59;;;4.05;56.20
27805;BME280;15183;51.350;11.102;2023-02-28T05:30:19;101418.44;;;4.00;56.31
27805;BME280;15183;51.350;11.102;2023-02-28T05:32:51;101437.44;;;4.22;56.36
27805;BME280;15183;51.350;11.102;2023-02-28T05:35:17;101422.22;;;4.25;56.62
27805;BME280;15183;51.350;11.102;2023-02-28T05:37:44;101439.97;;;4.41;56.69
27805;BME280;15183;51.350;11.102;2023-02-28T05:40:11;101427.03;;;4.40;56.70
27805;BME280;15183;51.350;11.102;2023-02-28T05:42:37;101448.47;;;4.63;56.99
27805;BME280;15183;51.350;11.102;2023-02-28T05:45:05;101434.78;;;4.59;56.97
27805;BME280;15183;51.350;11.102;2023-02-28T05:47:33;101461.47;;;4.83;57.56
27805;BME280;15183;51.350;11.102;2023-02-28T05:49:59;101459.91;;;4.90;57.00
27805;BME280;15183;51.350;11.102;2023-02-28T05:52:27;101455.06;;;4.95;57.22
27805;BME280;15183;51.350;11.102;2023-02-28T05:54:53;101422.00;;;4.74;56.91
27805;BME280;15183;51.350;11.102;2023-02-28T05:57:20;101459.84;;;5.00;57.14
27805;BME280;15183;51.350;11.102;2023-02-28T05:59:46;101469.25;;;5.02;56.91
27805;BME280;15183;51.350;11.102;2023-02-28T06:02:15;101441.00;;;4.86;56.96
27805;BME280;15183;51.350;11.102;2023-02-28T06:04:42;101462.06;;;5.04;56.75
27805;BME280;15183;51.350;11.102;2023-02-28T06:07:10;101395.41;;;4.59;56.78
27805;BME280;15183;51.350;11.102;2023-02-28T06:09:37;101454.59;;;5.00;57.08
27805;BME280;15183;51.350;11.102;2023-02-28T06:12:05;101440.28;;;4.94;56.79
27805;BME280;15183;51.350;11.102;2023-02-28T06:14:33;101470.31;;;5.10;56.77
27805;BME280;15183;51.350;11.102;2023-02-28T06:17:01;101377.09;;;4.49;56.75
27805;BME280;15183;51.350;11.102;2023-02-28T06:19:27;101469.34;;;5.11;56.37
27805;BME280;15183;51.350;11.102;2023-02-28T06:21:56;101467.00;;;5.07;56.69
27805;BME280;15183;51.350;11.102;2023-02-28T06:24:24;101458.81;;;5.11;56.84
27805;BME280;15183;51.350;11.102;2023-02-28T06:26:51;101434.06;;;4.95;56.84
27805;BME280;15183;51.350;11.102;2023-02-28T06:29:17;101465.66;;;5.03;57.24
27805;BME280;15183;51.350;11.102;2023-02-28T06:31:45;101478.63;;;5.05;56.76
27805;BME280;15183;51.350;11.102;2023-02-28T06:34:12;101495.81;;;4.99;57.01
27805;BME280;15183;51.350;11.102;2023-02-28T06:36:40;101463.88;;;4.76;56.68
27805;BME280;15183;51.350;11.102;2023-02-28T06:39:08;101465.81;;;4.74;57.12
27805;BME280;15183;51.350;11.102;2023-02-28T06:41:35;101488.41;;;4.85;56.94
27805;BME280;15183;51.350;11.102;2023-02-28T06:44:13;101461.03;;;4.59;56.38
27805;BME280;15183;51.350;11.102;2023-02-28T06:46:42;101410.66;;;4.18;56.03
27805;BME280;15183;51.350;11.102;2023-02-28T06:49:09;101434.00;;;4.11;56.06
27805;BME280;15183;51.350;11.102;2023-02-28T06:51:39;101467.09;;;4.32;56.54
27805;BME280;15183;51.350;11.102;2023-02-28T06:54:06;101496.22;;;4.39;56.05
27805;BME280;15183;51.350;11.102;2023-02-28T06:56:35;101474.59;;;4.17;56.31
27805;BME280;15183;51.350;11.102;2023-02-28T06:59:02;101455.72;;;4.03;56.22
27805;BME280;15183;51.350;11.102;2023-02-28T07:01:29;101499.38;;;4.32;56.53
27805;BME280;15183;51.350;11.102;2023-02-28T07:03:58;101513.34;;;4.33;56.66
27805;BME280;15183;51.350;11.102;2023-02-28T07:06:27;101497.50;;;4.25;56.46
27805;BME280;15183;51.350;11.102;2023-02-28T07:08:54;101499.16;;;4.26;56.26
27805;BME280;15183;51.350;11.102;2023-02-28T07:11:23;101502.69;;;4.34;56.52
27805;BME280;15183;51.350;11.102;2023-02-28T07:13:55;101495.53;;;4.37;56.92
27805;BME280;15183;51.350;11.102;2023-02-28T07:16:24;101438.16;;;4.14;57.00
27805;BME280;15183;51.350;11.102;2023-02-28T07:18:53;101520.16;;;4.63;56.92
27805;BME280;15183;51.350;11.102;2023-02-28T07:21:19;101522.47;;;4.67;56.58
27805;BME280;15183;51.350;11.102;2023-02-28T07:23:46;101523.44;;;4.75;57.27
27805;BME280;15183;51.350;11.102;2023-02-28T07:26:15;101516.88;;;4.89;56.96
27805;BME280;15183;51.350;11.102;2023-02-28T07:28:44;101502.91;;;4.89;56.64
27805;BME280;15183;51.350;11.102;2023-02-28T07:31:12;101438.44;;;4.48;57.04
27805;BME280;15183;51.350;11.102;2023-02-28T07:33:40;101515.34;;;5.15;57.05
27805;BME280;15183;51.350;11.102;2023-02-28T07:36:14;101504.78;;;5.25;56.54
27805;BME280;15183;51.350;11.102;2023-02-28T07:38:43;101531.59;;;5.46;56.52
27805;BME280;15183;51.350;11.102;2023-02-28T07:41:10;101428.94;;;4.93;56.52
27805;BME280;15183;51.350;11.102;2023-02-28T07:43:36;101482.06;;;5.33;55.93
27805;BME280;15183;51.350;11.102;2023-02-28T07:46:12;101472.94;;;5.28;55.44
27805;BME280;15183;51.350;11.102;2023-02-28T07:48:41;101515.38;;;5.51;55.36
27805;BME280;15183;51.350;11.102;2023-02-28T07:51:08;101509.38;;;5.59;55.67
27805;BME280;15183;51.350;11.102;2023-02-28T07:53:34;101431.81;;;5.18;55.38
27805;BME280;15183;51.350;11.102;2023-02-28T07:56:02;101526.72;;;5.88;55.33
27805;BME280;15183;51.350;11.102;2023-02-28T07:58:30;101518.38;;;5.92;54.79
27805;BME280;15183;51.350;11.102;2023-02-28T08:00:57;101518.38;;;5.92;54.59
27805;BME280;15183;51.350;11.102;2023-02-28T08:03:24;101500.19;;;5.81;53.74
27805;BME280;15183;51.350;11.102;2023-02-28T08:05:51;101537.47;;;5.94;53.43
27805;BME280;15183;51.350;11.102;2023-02-28T08:08:18;101525.84;;;5.79;52.69
27805;BME280;15183;51.350;11.102;2023-02-28T08:10:45;101535.97;;;5.74;52.72
27805;BME280;15183;51.350;11.102;2023-02-28T08:13:11;101540.16;;;5.67;52.76
27805;BME280;15183;51.350;11.102;2023-02-28T08:15:37;101520.94;;;5.48;52.36
27805;BME280;15183;51.350;11.102;2023-02-28T08:18:04;101528.47;;;5.43;51.94
27805;BME280;15183;51.350;11.102;2023-02-28T08:20:30;101508.00;;;5.18;52.24
27805;BME280;15183;51.350;11.102;2023-02-28T08:22:57;101475.78;;;4.98;52.01
27805;BME280;15183;51.350;11.102;2023-02-28T08:25:23;101506.94;;;5.11;52.14
27805;BME280;15183;51.350;11.102;2023-02-28T08:27:51;101522.81;;;5.19;51.67
27805;BME280;15183;51.350;11.102;2023-02-28T08:30:18;101528.19;;;5.18;52.05
27805;BME280;15183;51.350;11.102;2023-02-28T08:32:44;101509.94;;;4.98;51.93
27805;BME280;15183;51.350;11.102;2023-02-28T08:35:11;101503.56;;;4.91;51.94
27805;BME280;15183;51.350;11.102;2023-02-28T08:37:38;101513.06;;;5.02;52.08
27805;BME280;15183;51.350;11.102;2023-02-28T08:40:05;101480.81;;;4.82;51.95
27805;BME280;15183;51.350;11.102;2023-02-28T08:42:32;101452.06;;;4.62;51.95
27805;BME280;15183;51.350;11.102;2023-02-28T08:44:59;101497.91;;;4.96;51.30
27805;BME280;15183;51.350;11.102;2023-02-28T08:47:25;101519.38;;;5.09;51.44
27805;BME280;15183;51.350;11.102;2023-02-28T08:49:52;101521.19;;;5.09;51.26
27805;BME280;15183;51.350;11.102;2023-02-28T08:52:18;101493.91;;;4.91;50.50
27805;BME280;15183;51.350;11.102;2023-02-28T08:54:44;101495.31;;;4.86;50.79
27805;BME280;15183;51.350;11.102;2023-02-28T08:57:11;101524.81;;;5.07;50.45
27805;BME280;15183;51.350;11.102;2023-02-28T08:59:37;101513.06;;;5.02;50.40
27805;BME280;15183;51.350;11.102;2023-02-28T09:02:04;101507.00;;;5.01;50.56
27805;BME280;15183;51.350;11.102;2023-02-28T09:04:30;101454.47;;;4.73;50.60
27805;BME280;15183;51.350;11.102;2023-02-28T09:06:57;101497.16;;;5.03;50.25
27805;BME280;15183;51.350;11.102;2023-02-28T09:09:23;101518.81;;;5.15;50.24
27805;BME280;15183;51.350;11.102;2023-02-28T09:11:49;101525.81;;;5.25;49.80
27805;BME280;15183;51.350;11.102;2023-02-28T09:14:16;101534.91;;;5.30;50.14
27805;BME280;15183;51.350;11.102;2023-02-28T09:16:43;101463.47;;;4.99;49.32
27805;BME280;15183;51.350;11.102;2023-02-28T09:19:13;101514.47;;;5.24;49.20
27805;BME280;15183;51.350;11.102;2023-02-28T09:21:40;101513.59;;;5.33;49.34
27805;BME280;15183;51.350;11.102;2023-02-28T09:24:07;101495.25;;;5.24;49.54
27805;BME280;15183;51.350;11.102;2023-02-28T09:26:33;101512.69;;;5.43;49.24
27805;BME280;15183;51.350;11.102;2023-02-28T09:29:00;101522.28;;;5.52;48.83
27805;BME280;15183;51.350;11.102;2023-02-28T09:31:30;101518.38;;;5.56;48.84
27805;BME280;15183;51.350;11.102;2023-02-28T09:33:57;101492.56;;;5.33;48.85
27805;BME280;15183;51.350;11.102;2023-02-28T09:36:26;101458.53;;;5.32;48.29
27805;BME280;15183;51.350;11.102;2023-02-28T09:38:54;101522.06;;;5.82;47.84
27805;BME280;15183;51.350;11.102;2023-02-28T09:41:23;101484.69;;;5.52;47.52
27805;BME280;15183;51.350;11.102;2023-02-28T09:44:04;101475.03;;;5.42;47.84
27805;BME280;15183;51.350;11.102;2023-02-28T09:46:40;101468.44;;;5.38;47.08
27805;BME280;15183;51.350;11.102;2023-02-28T09:49:17;101509.81;;;5.72;46.80
27805;BME280;15183;51.350;11.102;2023-02-28T09:51:56;101458.16;;;5.45;46.19
27805;BME280;15183;51.350;11.102;2023-02-28T09:54:29;101527.41;;;5.90;46.75
27805;BME280;15183;51.350;11.102;2023-02-28T09:57:01;101536.72;;;6.02;46.32
27805;BME280;15183;51.350;11.102;2023-02-28T10:05:35;101548.97;;;6.12;47.38
27805;BME280;15183;51.350;11.102;2023-02-28T10:08:18;101529.13;;;5.99;47.01
27805;BME280;15183;51.350;11.102;2023-02-28T10:10:55;101544.72;;;6.19;46.49
27805;BME280;15183;51.350;11.102;2023-02-28T10:13:25;101542.00;;;6.29;47.36
27805;BME280;15183;51.350;11.102;2023-02-28T10:16:08;101524.97;;;6.15;46.54
27805;BME280;15183;51.350;11.102;2023-02-28T10:18:52;101561.69;;;6.43;46.59
27805;BME280;15183;51.350;11.102;2023-02-28T10:22:18;101543.47;;;6.49;45.96
27805;BME280;15183;51.350;11.102;2023-02-28T10:24:30;101549.09;;;6.55;45.63
27805;BME280;15183;51.350;11.102;2023-02-28T10:29:47;101446.75;;;5.80;44.78
27805;BME280;15183;51.350;11.102;2023-02-28T10:32:21;101545.06;;;6.42;43.92
27805;BME280;15183;51.350;11.102;2023-02-28T10:37:41;101529.94;;;6.18;44.82
27805;BME280;15183;51.350;11.102;2023-02-28T10:46:15;101536.25;;;6.25;45.88
27805;BME280;15183;51.350;11.102;2023-02-28T10:49:06;101536.09;;;6.27;45.46
27805;BME280;15183;51.350;11.102;2023-02-28T10:51:40;101508.41;;;6.22;45.48
27805;BME280;15183;51.350;11.102;2023-02-28T10:54:22;101510.69;;;6.17;44.74
27805;BME280;15183;51.350;11.102;2023-02-28T10:57:16;101521.28;;;6.26;45.09
27805;BME280;15183;51.350;11.102;2023-02-28T10:59:44;101446.16;;;5.87;45.68
27805;BME280;15183;51.350;11.102;2023-02-28T11:02:36;101515.03;;;6.27;44.94
27805;BME280;15183;51.350;11.102;2023-02-28T11:05:34;101520.34;;;6.35;44.49
27805;BME280;15183;51.350;11.102;2023-02-28T11:08:13;101499.84;;;6.20;43.91
27805;BME280;15183;51.350;11.102;2023-02-28T11:10:54;101510.38;;;6.20;43.65
27805;BME280;15183;51.350;11.102;2023-02-28T11:13:29;101496.81;;;6.07;43.79
27805;BME280;15183;51.350;11.102;2023-02-28T11:16:05;101500.72;;;6.03;43.39
27805;BME280;15183;51.350;11.102;2023-02-28T11:18:51;101465.34;;;5.79;44.01
27805;BME280;15183;51.350;11.102;2023-02-28T11:21:32;101474.41;;;5.85;44.10
27805;BME280;15183;51.350;11.102;2023-02-28T11:24:27;101505.00;;;6.04;44.16
27805;BME280;15183;51.350;11.102;2023-02-28T11:26:55;101501.69;;;6.02;43.42
27805;BME280;15183;51.350;11.102;2023-02-28T11:29:23;101495.00;;;6.07;44.37
27805;BME280;15183;51.350;11.102;2023-02-28T11:32:12;101495.22;;;6.14;45.24
27805;BME280;15183;51.350;11.102;2023-02-28T11:34:40;101483.84;;;6.14;44.10
27805;BME280;15183;51.350;11.102;2023-02-28T11:37:18;101460.44;;;6.02;44.36
27805;BME280;15183;51.350;11.102;2023-02-28T11:39:46;101470.56;;;6.15;44.79
27805;BME280;15183;51.350;11.102;2023-02-28T11:42:37;101497.00;;;6.40;44.32
27805;BME280;15183;51.350;11.102;2023-02-28T11:45:29;101501.22;;;6.33;44.92
27805;BME280;15183;51.350;11.102;2023-02-28T11:51:06;101471.88;;;6.19;44.77
27805;BME280;15183;51.350;11.102;2023-02-28T11:54:08;101495.72;;;6.44;43.92
27805;BME280;15183;51.350;11.102;2023-02-28T11:56:47;101464.50;;;6.23;44.21
27805;BME280;15183;51.350;11.102;2023-02-28T12:00:03;101501.66;;;6.46;43.82
27805;BME280;15183;51.350;11.102;2023-02-28T12:05:48;101486.69;;;6.47;43.40
27805;BME280;15183;51.350;11.102;2023-02-28T12:20:21;101389.16;;;5.96;43.77
27805;BME280;15183;51.350;11.102;2023-02-28T12:26:42;101457.69;;;6.39;43.59
27805;BME280;15183;51.350;11.102;2023-02-28T12:30:09;101452.25;;;6.40;43.45
27805;BME280;15183;51.350;11.102;2023-02-28T12:32:38;101454.09;;;6.48;44.14
27805;BME280;15183;51.350;11.102;2023-02-28T12:35:33;101477.00;;;6.56;43.84
27805;BME280;15183;51.350;11.102;2023-02-28T12:38:17;101476.38;;;6.62;43.24
27805;BME280;15183;51.350;11.102;2023-02-28T12:41:16;101437.94;;;6.43;43.88
27805;BME280;15183;51.350;11.102;2023-02-28T12:43:49;101399.53;;;6.23;44.11
27805;BME280;15183;51.350;11.102;2023-02-28T12:46:25;101421.38;;;6.50;44.05
27805;BME280;15183;51.350;11.102;2023-02-28T12:49:04;101454.38;;;6.79;44.07
27805;BME280;15183;51.350;11.102;2023-02-28T12:51:32;101435.09;;;6.71;44.68
27805;BME280;15183;51.350;11.102;2023-02-28T12:54:23;101442.56;;;6.84;43.67
27805;BME280;15183;51.350;11.102;2023-02-28T12:59:50;101444.38;;;7.00;44.33
27805;BME280;15183;51.350;11.102;2023-02-28T13:14:04;101442.13;;;7.21;44.26
27805;BME280;15183;51.350;11.102;2023-02-28T13:19:56;101439.81;;;7.18;44.24
27805;BME280;15183;51.350;11.102;2023-02-28T13:25:01;101363.00;;;6.72;43.73
27805;BME280;15183;51.350;11.102;2023-02-28T13:27:39;101405.34;;;6.95;44.14
27805;BME280;15183;51.350;11.102;2023-02-28T13:33:32;101399.75;;;6.90;43.89
27805;BME280;15183;51.350;11.102;2023-02-28T13:38:49;101423.47;;;6.98;44.41
27805;BME280;15183;51.350;11.102;2023-02-28T13:41:42;101398.75;;;6.91;44.33
27805;BME280;15183;51.350;11.102;2023-02-28T13:44:21;101425.47;;;7.13;44.90
27805;BME280;15183;51.350;11.102;2023-02-28T13:49:27;101401.09;;;7.10;44.60
27805;BME280;15183;51.350;11.102;2023-02-28T13:58:35;101410.31;;;7.06;44.29
27805;BME280;15183;51.350;11.102;2023-02-28T14:06:33;101330.38;;;6.56;43.71
27805;BME280;15183;51.350;11.102;2023-02-28T14:09:16;101288.34;;;6.30;44.52
27805;BME280;15183;51.350;11.102;2023-02-28T14:11:45;101373.88;;;6.77;44.43
27805;BME280;15183;51.350;11.102;2023-02-28T14:17:03;101399.25;;;6.94;43.95
27805;BME280;15183;51.350;11.102;2023-02-28T14:19:32;101394.50;;;6.98;44.62
27805;BME280;15183;51.350;11.102;2023-02-28T14:25:30;101404.88;;;7.08;44.43
27805;BME280;15183;51.350;11.102;2023-02-28T14:28:20;101409.81;;;7.11;44.68
27805;BME280;15183;51.350;11.102;2023-02-28T14:31:06;101409.00;;;7.10;44.95
27805;BME280;15183;51.350;11.102;2023-02-28T14:36:45;101411.28;;;7.05;43.96
27805;BME280;15183;51.350;11.102;2023-02-28T14:39:19;101380.31;;;6.91;44.24
27805;BME280;15183;51.350;11.102;2023-02-28T14:41:46;101387.56;;;6.89;43.94
27805;BME280;15183;51.350;11.102;2023-02-28T14:44:22;101387.91;;;6.94;44.29
27805;BME280;15183;51.350;11.102;2023-02-28T14:47:00;101383.75;;;6.91;44.16
27805;BME280;15183;51.350;11.102;2023-02-28T14:49:44;101403.38;;;7.05;44.40
27805;BME280;15183;51.350;11.102;2023-02-28T14:52:23;101369.59;;;6.84;44.18
27805;BME280;15183;51.350;11.102;2023-02-28T14:54:57;101307.13;;;6.35;44.04
27805;BME280;15183;51.350;11.102;2023-02-28T14:57:31;101383.28;;;6.88;43.74
27805;BME280;15183;51.350;11.102;2023-02-28T15:00:01;101372.72;;;6.79;44.25
27805;BME280;15183;51.350;11.102;2023-02-28T15:02:34;101334.16;;;6.45;44.44
27805;BME280;15183;51.350;11.102;2023-02-28T15:07:39;101302.03;;;6.33;44.28
27805;BME280;15183;51.350;11.102;2023-02-28T15:13:09;101357.22;;;6.68;44.56
27805;BME280;15183;51.350;11.102;2023-02-28T15:21:26;101367.44;;;6.71;44.52
27805;BME280;15183;51.350;11.102;2023-02-28T15:26:41;101365.97;;;6.69;44.82
27805;BME280;15183;51.350;11.102;2023-02-28T15:29:20;101387.53;;;6.80;45.20